Terminal Aerodrome Forecast
Issued by NWS

Home | Current Version | Previous Version | Text Only | Print | Product List | Glossary On
Versions: 1 2 3 4 5 6 7 8 9 10 11 12 13 14 15 16 17 18
000
FTUS42 KMHX 231700
TAFISO
TAF
KISO 231720Z 2318/2418 08004KT P6SM VCSH BKN030 OVC050
     FM231900 12007KT 5SM -RA BKN030
     FM240000 14015G20KT 3SM RA BKN020
     FM240400 21010G15KT 3SM RA BKN020
      TEMPO 2404/2408 2SM TSRA OVC020CB
     FM240800 19010G15KT 4SM SHRA BR OVC030
     FM241500 22010G15KT P6SM OVC040
      AMD LTD TO CLD VIS AND WIND=

USA.gov is the U.S. government's official web portal to all federal, state and local government web resources and services.